sensor_id;sensor_type;location;lat;lon;timestamp;pressure;altitude;pressure_sealevel;temperature;humidity
23223;BME280;11780;13.904;100.620;2022-12-18T00:02:10;101489.91;;;27.19;47.71
23223;BME280;11780;13.904;100.620;2022-12-18T00:04:41;101482.22;;;27.21;47.94
23223;BME280;11780;13.904;100.620;2022-12-18T00:07:11;101486.06;;;27.25;47.65
23223;BME280;11780;13.904;100.620;2022-12-18T00:09:41;101491.56;;;27.25;47.64
23223;BME280;11780;13.904;100.620;2022-12-18T00:12:11;101496.75;;;27.27;47.58
23223;BME280;11780;13.904;100.620;2022-12-18T00:14:42;101500.31;;;27.32;47.60
23223;BME280;11780;13.904;100.620;2022-12-18T00:17:12;101492.34;;;27.31;47.47
23223;BME280;11780;13.904;100.620;2022-12-18T00:19:42;101507.97;;;27.35;47.27
23223;BME280;11780;13.904;100.620;2022-12-18T00:22:12;101515.16;;;27.31;47.12
23223;BME280;11780;13.904;100.620;2022-12-18T00:24:43;101524.22;;;27.32;47.00
23223;BME280;11780;13.904;100.620;2022-12-18T00:27:13;101528.91;;;27.31;47.32
23223;BME280;11780;13.904;100.620;2022-12-18T00:29:44;101533.81;;;27.40;47.02
23223;BME280;11780;13.904;100.620;2022-12-18T00:32:14;101527.81;;;27.32;47.09
23223;BME280;11780;13.904;100.620;2022-12-18T00:34:44;101529.97;;;27.35;47.11
23223;BME280;11780;13.904;100.620;2022-12-18T00:37:14;101530.25;;;27.34;47.33
23223;BME280;11780;13.904;100.620;2022-12-18T00:39:50;101531.59;;;27.36;47.07
23223;BME280;11780;13.904;100.620;2022-12-18T00:42:20;101536.28;;;27.36;47.21
23223;BME280;11780;13.904;100.620;2022-12-18T00:45:09;101539.06;;;27.31;47.16
23223;BME280;11780;13.904;100.620;2022-12-18T00:47:40;101547.84;;;27.33;46.89
23223;BME280;11780;13.904;100.620;2022-12-18T00:50:10;101545.66;;;27.30;46.93
23223;BME280;11780;13.904;100.620;2022-12-18T00:52:41;101562.38;;;27.33;46.78
23223;BME280;11780;13.904;100.620;2022-12-18T00:55:12;101555.78;;;27.34;46.75
23223;BME280;11780;13.904;100.620;2022-12-18T00:57:42;101561.81;;;27.42;46.77
23223;BME280;11780;13.904;100.620;2022-12-18T01:00:14;101554.38;;;27.42;46.36
23223;BME280;11780;13.904;100.620;2022-12-18T01:02:45;101553.59;;;27.42;46.38
23223;BME280;11780;13.904;100.620;2022-12-18T01:05:15;101555.53;;;27.36;46.39
23223;BME280;11780;13.904;100.620;2022-12-18T01:07:46;101561.84;;;27.36;46.54
23223;BME280;11780;13.904;100.620;2022-12-18T01:10:16;101571.47;;;27.39;46.41
23223;BME280;11780;13.904;100.620;2022-12-18T01:12:46;101585.16;;;27.44;46.31
23223;BME280;11780;13.904;100.620;2022-12-18T01:15:19;101589.59;;;27.40;46.42
23223;BME280;11780;13.904;100.620;2022-12-18T01:17:52;101589.31;;;27.42;46.35
23223;BME280;11780;13.904;100.620;2022-12-18T01:20:26;101594.50;;;27.43;46.04
23223;BME280;11780;13.904;100.620;2022-12-18T01:22:57;101600.28;;;27.42;46.18
23223;BME280;11780;13.904;100.620;2022-12-18T01:25:27;101602.75;;;27.43;45.95
23223;BME280;11780;13.904;100.620;2022-12-18T01:27:57;101606.34;;;27.44;45.94
23223;BME280;11780;13.904;100.620;2022-12-18T01:30:27;101605.50;;;27.43;46.09
23223;BME280;11780;13.904;100.620;2022-12-18T01:32:57;101611.56;;;27.45;45.80
23223;BME280;11780;13.904;100.620;2022-12-18T01:35:27;101608.81;;;27.45;45.81
23223;BME280;11780;13.904;100.620;2022-12-18T01:37:57;101617.59;;;27.42;45.87
23223;BME280;11780;13.904;100.620;2022-12-18T01:40:28;101621.97;;;27.43;45.91
23223;BME280;11780;13.904;100.620;2022-12-18T01:42:58;101618.72;;;27.46;46.04
23223;BME280;11780;13.904;100.620;2022-12-18T01:45:29;101620.66;;;27.46;46.12
23223;BME280;11780;13.904;100.620;2022-12-18T01:48:06;101619.81;;;27.45;46.10
23223;BME280;11780;13.904;100.620;2022-12-18T01:50:40;101621.72;;;27.50;45.88
23223;BME280;11780;13.904;100.620;2022-12-18T01:53:17;101624.75;;;27.48;46.08
23223;BME280;11780;13.904;100.620;2022-12-18T01:55:52;101639.06;;;27.50;45.58
23223;BME280;11780;13.904;100.620;2022-12-18T01:59:00;101633.00;;;27.48;45.93
23223;BME280;11780;13.904;100.620;2022-12-18T02:01:32;101647.56;;;27.49;46.08
23223;BME280;11780;13.904;100.620;2022-12-18T02:04:24;101642.06;;;27.49;46.13
23223;BME280;11780;13.904;100.620;2022-12-18T02:09:47;101648.66;;;27.53;46.23
23223;BME280;11780;13.904;100.620;2022-12-18T02:12:23;101640.44;;;27.48;46.15
23223;BME280;11780;13.904;100.620;2022-12-18T02:18:26;101640.97;;;27.55;45.94
23223;BME280;11780;13.904;100.620;2022-12-18T02:21:19;101641.50;;;27.52;45.95
23223;BME280;11780;13.904;100.620;2022-12-18T02:26:56;101631.91;;;27.55;46.17
23223;BME280;11780;13.904;100.620;2022-12-18T02:29:40;101630.81;;;27.56;46.30
23223;BME280;11780;13.904;100.620;2022-12-18T02:32:17;101635.47;;;27.55;45.96
23223;BME280;11780;13.904;100.620;2022-12-18T02:34:53;101641.50;;;27.57;45.73
23223;BME280;11780;13.904;100.620;2022-12-18T02:37:28;101644.25;;;27.62;45.71
23223;BME280;11780;13.904;100.620;2022-12-18T02:40:03;101643.41;;;27.62;45.82
23223;BME280;11780;13.904;100.620;2022-12-18T02:42:36;101637.38;;;27.60;45.69
23223;BME280;11780;13.904;100.620;2022-12-18T02:45:08;101641.50;;;27.57;45.49
23223;BME280;11780;13.904;100.620;2022-12-18T02:47:43;101633.50;;;27.61;45.61
23223;BME280;11780;13.904;100.620;2022-12-18T02:50:38;101630.75;;;27.61;45.70
23223;BME280;11780;13.904;100.620;2022-12-18T02:53:27;101630.22;;;27.64;45.45
23223;BME280;11780;13.904;100.620;2022-12-18T02:56:42;101633.50;;;27.61;45.44
23223;BME280;11780;13.904;100.620;2022-12-18T02:59:21;101630.22;;;27.64;45.40
23223;BME280;11780;13.904;100.620;2022-12-18T03:02:19;101634.34;;;27.61;45.23
23223;BME280;11780;13.904;100.620;2022-12-18T03:04:59;101610.16;;;27.63;45.38
23223;BME280;11780;13.904;100.620;2022-12-18T03:07:51;101621.66;;;27.65;45.32
23223;BME280;11780;13.904;100.620;2022-12-18T03:10:31;101612.91;;;27.63;45.41
23223;BME280;11780;13.904;100.620;2022-12-18T03:13:12;101616.72;;;27.68;45.52
23223;BME280;11780;13.904;100.620;2022-12-18T03:15:47;101597.22;;;27.64;45.27
23223;BME280;11780;13.904;100.620;2022-12-18T03:18:23;101600.78;;;27.64;45.35
23223;BME280;11780;13.904;100.620;2022-12-18T03:20:56;101587.03;;;27.64;45.11
23223;BME280;11780;13.904;100.620;2022-12-18T03:23:34;101584.03;;;27.66;45.07
23223;BME280;11780;13.904;100.620;2022-12-18T03:26:10;101580.44;;;27.65;44.88
23223;BME280;11780;13.904;100.620;2022-12-18T03:28:53;101581.28;;;27.66;44.85
23223;BME280;11780;13.904;100.620;2022-12-18T03:31:28;101573.28;;;27.64;45.18
23223;BME280;11780;13.904;100.620;2022-12-18T03:34:02;101564.78;;;27.66;45.09
23223;BME280;11780;13.904;100.620;2022-12-18T03:36:42;101566.69;;;27.65;45.01
23223;BME280;11780;13.904;100.620;2022-12-18T03:39:14;101561.75;;;27.68;44.86
23223;BME280;11780;13.904;100.620;2022-12-18T03:42:08;101564.50;;;27.68;45.19
23223;BME280;11780;13.904;100.620;2022-12-18T03:48:00;101553.50;;;27.73;45.34
23223;BME280;11780;13.904;100.620;2022-12-18T03:51:06;101542.78;;;27.71;45.35
23223;BME280;11780;13.904;100.620;2022-12-18T03:56:36;101535.88;;;27.74;44.76
23223;BME280;11780;13.904;100.620;2022-12-18T03:59:12;101537.28;;;27.71;44.97
23223;BME280;11780;13.904;100.620;2022-12-18T04:01:50;101528.19;;;27.71;45.43
23223;BME280;11780;13.904;100.620;2022-12-18T04:04:24;101523.25;;;27.73;44.95
23223;BME280;11780;13.904;100.620;2022-12-18T04:06:59;101515.00;;;27.73;44.81
23223;BME280;11780;13.904;100.620;2022-12-18T04:09:33;101511.41;;;27.72;45.26
23223;BME280;11780;13.904;100.620;2022-12-18T04:12:06;101508.09;;;27.75;45.17
23223;BME280;11780;13.904;100.620;2022-12-18T04:14:37;101500.41;;;27.72;44.62
23223;BME280;11780;13.904;100.620;2022-12-18T04:17:08;101497.66;;;27.72;44.90
23223;BME280;11780;13.904;100.620;2022-12-18T04:19:39;101498.22;;;27.74;44.67
23223;BME280;11780;13.904;100.620;2022-12-18T04:22:10;101504.25;;;27.76;45.16
23223;BME280;11780;13.904;100.620;2022-12-18T04:24:45;101488.59;;;27.77;45.30
23223;BME280;11780;13.904;100.620;2022-12-18T04:27:24;101485.56;;;27.78;45.17
23223;BME280;11780;13.904;100.620;2022-12-18T04:29:54;101487.50;;;27.78;44.91
23223;BME280;11780;13.904;100.620;2022-12-18T04:32:25;101479.25;;;27.78;44.94
23223;BME280;11780;13.904;100.620;2022-12-18T04:34:55;101478.41;;;27.77;44.91
23223;BME280;11780;13.904;100.620;2022-12-18T04:37:25;101464.66;;;27.77;44.82
23223;BME280;11780;13.904;100.620;2022-12-18T04:39:56;101463.56;;;27.78;44.71
23223;BME280;11780;13.904;100.620;2022-12-18T04:42:33;101464.66;;;27.77;44.30
23223;BME280;11780;13.904;100.620;2022-12-18T04:45:04;101460.81;;;27.78;44.82
23223;BME280;11780;13.904;100.620;2022-12-18T04:47:34;101444.31;;;27.78;44.66
23223;BME280;11780;13.904;100.620;2022-12-18T04:50:05;101440.75;;;27.78;44.46
23223;BME280;11780;13.904;100.620;2022-12-18T04:52:35;101440.75;;;27.78;44.76
23223;BME280;11780;13.904;100.620;2022-12-18T04:55:05;101434.16;;;27.79;44.82
23223;BME280;11780;13.904;100.620;2022-12-18T04:57:35;101424.25;;;27.78;45.09
23223;BME280;11780;13.904;100.620;2022-12-18T05:00:06;101427.78;;;27.84;45.17
23223;BME280;11780;13.904;100.620;2022-12-18T05:02:37;101423.09;;;27.84;45.06
23223;BME280;11780;13.904;100.620;2022-12-18T05:05:08;101413.22;;;27.83;44.63
23223;BME280;11780;13.904;100.620;2022-12-18T05:07:38;101407.72;;;27.83;44.48
23223;BME280;11780;13.904;100.620;2022-12-18T05:10:09;101405.25;;;27.81;44.79
23223;BME280;11780;13.904;100.620;2022-12-18T05:12:39;101386.56;;;27.84;44.29
23223;BME280;11780;13.904;100.620;2022-12-18T05:15:32;101382.16;;;27.83;44.31
23223;BME280;11780;13.904;100.620;2022-12-18T05:18:04;101390.94;;;27.85;44.48
23223;BME280;11780;13.904;100.620;2022-12-18T05:20:34;101380.22;;;27.83;44.71
23223;BME280;11780;13.904;100.620;2022-12-18T05:23:04;101371.97;;;27.83;44.53
23223;BME280;11780;13.904;100.620;2022-12-18T05:25:34;101366.47;;;27.83;44.48
23223;BME280;11780;13.904;100.620;2022-12-18T05:28:04;101369.75;;;27.85;44.27
23223;BME280;11780;13.904;100.620;2022-12-18T05:30:34;101359.59;;;27.86;44.51
23223;BME280;11780;13.904;100.620;2022-12-18T05:33:04;101347.75;;;27.85;44.71
23223;BME280;11780;13.904;100.620;2022-12-18T05:35:34;101346.97;;;27.85;44.66
23223;BME280;11780;13.904;100.620;2022-12-18T05:38:04;101342.00;;;27.87;44.75
23223;BME280;11780;13.904;100.620;2022-12-18T05:40:34;101342.00;;;27.87;44.81
23223;BME280;11780;13.904;100.620;2022-12-18T05:43:05;101321.91;;;27.86;44.73
23223;BME280;11780;13.904;100.620;2022-12-18T05:45:38;101315.31;;;27.87;44.77
23223;BME280;11780;13.904;100.620;2022-12-18T05:48:09;101308.69;;;27.88;44.83
23223;BME280;11780;13.904;100.620;2022-12-18T05:50:42;101307.88;;;27.88;44.95
23223;BME280;11780;13.904;100.620;2022-12-18T05:53:17;101300.44;;;27.88;45.01
23223;BME280;11780;13.904;100.620;2022-12-18T05:55:48;101307.59;;;27.89;45.05
23223;BME280;11780;13.904;100.620;2022-12-18T05:58:19;101296.59;;;27.89;44.98
23223;BME280;11780;13.904;100.620;2022-12-18T06:00:49;101284.50;;;27.90;45.20
23223;BME280;11780;13.904;100.620;2022-12-18T06:03:19;101264.94;;;27.92;45.07
23223;BME280;11780;13.904;100.620;2022-12-18T06:05:53;101266.88;;;27.91;44.92
23223;BME280;11780;13.904;100.620;2022-12-18T06:08:23;101258.91;;;27.90;44.89
23223;BME280;11780;13.904;100.620;2022-12-18T06:10:53;101254.78;;;27.92;44.67
23223;BME280;11780;13.904;100.620;2022-12-18T06:13:23;101247.63;;;27.91;44.75
23223;BME280;11780;13.904;100.620;2022-12-18T06:15:53;101248.97;;;27.94;44.96
23223;BME280;11780;13.904;100.620;2022-12-18T06:18:23;101243.16;;;27.95;45.01
23223;BME280;11780;13.904;100.620;2022-12-18T06:20:57;101232.16;;;27.95;44.97
23223;BME280;11780;13.904;100.620;2022-12-18T06:23:27;101214.34;;;27.93;44.98
23223;BME280;11780;13.904;100.620;2022-12-18T06:25:58;101214.56;;;27.96;45.04
23223;BME280;11780;13.904;100.620;2022-12-18T06:28:28;101207.16;;;27.97;44.78
23223;BME280;11780;13.904;100.620;2022-12-18T06:30:58;101189.81;;;27.96;45.00
23223;BME280;11780;13.904;100.620;2022-12-18T06:33:29;101179.13;;;27.95;45.06
23223;BME280;11780;13.904;100.620;2022-12-18T06:36:07;101172.50;;;27.96;45.13
23223;BME280;11780;13.904;100.620;2022-12-18T06:38:40;101168.44;;;27.93;45.18
23223;BME280;11780;13.904;100.620;2022-12-18T06:41:13;101166.19;;;27.95;44.85
23223;BME280;11780;13.904;100.620;2022-12-18T06:43:44;101175.25;;;27.96;45.04
23223;BME280;11780;13.904;100.620;2022-12-18T06:46:14;101152.97;;;27.98;45.07
23223;BME280;11780;13.904;100.620;2022-12-18T06:48:50;101155.72;;;27.98;45.00
23223;BME280;11780;13.904;100.620;2022-12-18T06:51:21;101152.16;;;27.97;44.53
23223;BME280;11780;13.904;100.620;2022-12-18T06:53:51;101141.97;;;27.98;44.50
23223;BME280;11780;13.904;100.620;2022-12-18T06:56:21;101141.16;;;27.97;44.86
23223;BME280;11780;13.904;100.620;2022-12-18T06:58:52;101137.31;;;27.98;45.12
23223;BME280;11780;13.904;100.620;2022-12-18T07:01:22;101121.91;;;27.97;44.87
23223;BME280;11780;13.904;100.620;2022-12-18T07:03:56;101133.44;;;27.99;45.13
23223;BME280;11780;13.904;100.620;2022-12-18T07:06:27;101127.94;;;27.99;45.28
23223;BME280;11780;13.904;100.620;2022-12-18T07:08:57;101135.06;;;28.00;45.33
23223;BME280;11780;13.904;100.620;2022-12-18T07:11:27;101129.28;;;28.02;45.38
23223;BME280;11780;13.904;100.620;2022-12-18T07:13:58;101124.06;;;28.00;45.65
23223;BME280;11780;13.904;100.620;2022-12-18T07:16:27;101130.91;;;28.03;45.59
23223;BME280;11780;13.904;100.620;2022-12-18T07:18:58;101123.78;;;28.02;45.68
23223;BME280;11780;13.904;100.620;2022-12-18T07:21:28;101117.16;;;28.03;45.59
23223;BME280;11780;13.904;100.620;2022-12-18T07:23:58;101114.41;;;28.03;45.70
23223;BME280;11780;13.904;100.620;2022-12-18T07:26:28;101118.81;;;28.04;45.54
23223;BME280;11780;13.904;100.620;2022-12-18T07:28:58;101117.16;;;28.03;45.64
23223;BME280;11780;13.904;100.620;2022-12-18T07:31:28;101111.66;;;28.03;45.45
23223;BME280;11780;13.904;100.620;2022-12-18T07:33:59;101106.97;;;28.03;45.52
23223;BME280;11780;13.904;100.620;2022-12-18T07:36:29;101114.09;;;28.04;45.73
23223;BME280;11780;13.904;100.620;2022-12-18T07:38:59;101116.06;;;28.04;45.79
23223;BME280;11780;13.904;100.620;2022-12-18T07:41:29;101106.97;;;28.03;45.81
23223;BME280;11780;13.904;100.620;2022-12-18T07:44:10;101106.69;;;28.05;45.76
23223;BME280;11780;13.904;100.620;2022-12-18T07:46:40;101108.31;;;28.06;45.86
23223;BME280;11780;13.904;100.620;2022-12-18T07:49:10;101107.81;;;28.04;46.03
23223;BME280;11780;13.904;100.620;2022-12-18T07:51:40;101099.56;;;28.04;46.07
23223;BME280;11780;13.904;100.620;2022-12-18T07:54:10;101101.19;;;28.05;45.96
23223;BME280;11780;13.904;100.620;2022-12-18T07:56:40;101100.88;;;28.06;45.85
23223;BME280;11780;13.904;100.620;2022-12-18T07:59:10;101102.81;;;28.06;46.08
23223;BME280;11780;13.904;100.620;2022-12-18T08:01:40;101094.56;;;28.06;46.14
23223;BME280;11780;13.904;100.620;2022-12-18T08:04:10;101101.72;;;28.07;46.20
23223;BME280;11780;13.904;100.620;2022-12-18T08:06:40;101104.16;;;28.08;46.35
23223;BME280;11780;13.904;100.620;2022-12-18T08:09:14;101107.22;;;28.07;46.26
23223;BME280;11780;13.904;100.620;2022-12-18T08:11:44;101104.47;;;28.07;46.29
23223;BME280;11780;13.904;100.620;2022-12-18T08:14:14;101102.25;;;28.09;46.40
23223;BME280;11780;13.904;100.620;2022-12-18T08:16:44;101091.25;;;28.09;46.45
23223;BME280;11780;13.904;100.620;2022-12-18T08:19:14;101093.47;;;28.07;46.11
23223;BME280;11780;13.904;100.620;2022-12-18T08:21:44;101095.09;;;28.08;45.78
23223;BME280;11780;13.904;100.620;2022-12-18T08:24:14;101093.16;;;28.08;45.62
23223;BME280;11780;13.904;100.620;2022-12-18T08:26:44;101092.34;;;28.08;45.74
23223;BME280;11780;13.904;100.620;2022-12-18T08:29:34;101090.72;;;28.07;45.85
23223;BME280;11780;13.904;100.620;2022-12-18T08:32:05;101089.59;;;28.08;45.58
23223;BME280;11780;13.904;100.620;2022-12-18T08:34:35;101096.22;;;28.07;45.61
23223;BME280;11780;13.904;100.620;2022-12-18T08:37:05;101088.50;;;28.09;45.91
23223;BME280;11780;13.904;100.620;2022-12-18T08:39:35;101086.91;;;28.03;45.73
23223;BME280;11780;13.904;100.620;2022-12-18T08:42:06;101088.56;;;28.04;45.91
23223;BME280;11780;13.904;100.620;2022-12-18T08:44:55;101086.25;;;28.11;46.94
23223;BME280;11780;13.904;100.620;2022-12-18T08:47:25;101082.47;;;28.07;45.89
23223;BME280;11780;13.904;100.620;2022-12-18T08:49:55;101071.31;;;27.98;45.83
23223;BME280;11780;13.904;100.620;2022-12-18T08:52:25;101082.84;;;28.00;45.61
23223;BME280;11780;13.904;100.620;2022-12-18T08:54:55;101083.81;;;28.09;46.15
23223;BME280;11780;13.904;100.620;2022-12-18T08:57:25;101084.47;;;28.01;45.68
23223;BME280;11780;13.904;100.620;2022-12-18T08:59:55;101083.63;;;28.01;45.93
23223;BME280;11780;13.904;100.620;2022-12-18T09:02:25;101095.16;;;28.03;45.81
23223;BME280;11780;13.904;100.620;2022-12-18T09:04:55;101089.88;;;28.06;45.66
23223;BME280;11780;13.904;100.620;2022-12-18T09:07:25;101094.06;;;28.04;45.47
23223;BME280;11780;13.904;100.620;2022-12-18T09:09:55;101094.09;;;27.99;45.61
23223;BME280;11780;13.904;100.620;2022-12-18T09:12:25;101097.91;;;28.03;45.76
23223;BME280;11780;13.904;100.620;2022-12-18T09:14:55;101106.75;;;28.00;45.47
23223;BME280;11780;13.904;100.620;2022-12-18T09:17:26;101108.16;;;27.97;45.88
23223;BME280;11780;13.904;100.620;2022-12-18T09:19:56;101100.19;;;27.95;45.68
23223;BME280;11780;13.904;100.620;2022-12-18T09:22:26;101107.84;;;27.99;45.53
23223;BME280;11780;13.904;100.620;2022-12-18T09:24:56;101107.41;;;27.91;45.22
23223;BME280;11780;13.904;100.620;2022-12-18T09:27:26;101115.47;;;28.07;45.76
23223;BME280;11780;13.904;100.620;2022-12-18T09:29:56;101104.16;;;28.08;45.70
23223;BME280;11780;13.904;100.620;2022-12-18T09:32:26;101117.16;;;28.03;45.83
23223;BME280;11780;13.904;100.620;2022-12-18T09:34:56;101121.16;;;28.16;45.83
23223;BME280;11780;13.904;100.620;2022-12-18T09:37:26;101125.31;;;28.13;45.83
23223;BME280;11780;13.904;100.620;2022-12-18T09:39:56;101127.25;;;28.13;45.79
23223;BME280;11780;13.904;100.620;2022-12-18T09:42:26;101118.81;;;28.04;45.86
23223;BME280;11780;13.904;100.620;2022-12-18T09:44:57;101131.97;;;28.07;45.78
23223;BME280;11780;13.904;100.620;2022-12-18T09:47:35;101134.16;;;28.10;46.02
23223;BME280;11780;13.904;100.620;2022-12-18T09:52:52;101146.06;;;28.00;45.85
23223;BME280;11780;13.904;100.620;2022-12-18T09:55:24;101142.72;;;28.03;46.03
23223;BME280;11780;13.904;100.620;2022-12-18T10:00:52;101156.03;;;27.96;46.30
23223;BME280;11780;13.904;100.620;2022-12-18T10:03:24;101154.91;;;27.97;46.52
23223;BME280;11780;13.904;100.620;2022-12-18T10:11:38;101167.91;;;27.91;46.18
23223;BME280;11780;13.904;100.620;2022-12-18T10:14:32;101169.47;;;27.98;46.49
23223;BME280;11780;13.904;100.620;2022-12-18T10:20:05;101182.22;;;27.88;46.30
23223;BME280;11780;13.904;100.620;2022-12-18T10:22:50;101180.47;;;27.98;46.62
23223;BME280;11780;13.904;100.620;2022-12-18T10:25:34;101185.84;;;27.84;46.63
23223;BME280;11780;13.904;100.620;2022-12-18T10:28:14;101185.44;;;27.95;46.98
23223;BME280;11780;13.904;100.620;2022-12-18T10:30:45;101190.16;;;27.90;47.03
23223;BME280;11780;13.904;100.620;2022-12-18T10:33:22;101190.59;;;27.78;46.80
23223;BME280;11780;13.904;100.620;2022-12-18T10:35:53;101194.72;;;27.75;46.82
23223;BME280;11780;13.904;100.620;2022-12-18T10:38:26;101196.59;;;27.80;47.01
23223;BME280;11780;13.904;100.620;2022-12-18T10:40:59;101194.97;;;27.79;46.98
23223;BME280;11780;13.904;100.620;2022-12-18T10:43:38;101196.59;;;27.80;47.14
23223;BME280;11780;13.904;100.620;2022-12-18T10:54:33;101193.38;;;27.73;47.02
23223;BME280;11780;13.904;100.620;2022-12-18T10:57:14;101210.00;;;27.62;47.12
23223;BME280;11780;13.904;100.620;2022-12-18T11:00:27;101206.94;;;27.64;46.85
23223;BME280;11780;13.904;100.620;2022-12-18T11:02:58;101214.03;;;27.70;47.22
23223;BME280;11780;13.904;100.620;2022-12-18T11:05:30;101223.00;;;27.52;46.96
23223;BME280;11780;13.904;100.620;2022-12-18T11:08:01;101235.38;;;27.49;47.24
23223;BME280;11780;13.904;100.620;2022-12-18T11:10:36;101232.56;;;27.59;47.20
23223;BME280;11780;13.904;100.620;2022-12-18T11:13:22;101227.63;;;27.56;47.09
23223;BME280;11780;13.904;100.620;2022-12-18T11:15:53;101239.19;;;27.53;47.15
23223;BME280;11780;13.904;100.620;2022-12-18T11:21:06;101243.66;;;27.44;47.20
23223;BME280;11780;13.904;100.620;2022-12-18T11:23:43;101253.81;;;27.43;47.39
23223;BME280;11780;13.904;100.620;2022-12-18T11:26:14;101255.75;;;27.43;47.15
23223;BME280;11780;13.904;100.620;2022-12-18T11:28:52;101267.00;;;27.46;47.01
23223;BME280;11780;13.904;100.620;2022-12-18T11:31:36;101280.47;;;27.48;47.38
23223;BME280;11780;13.904;100.620;2022-12-18T11:34:18;101275.78;;;27.48;47.21
23223;BME280;11780;13.904;100.620;2022-12-18T11:36:58;101278.75;;;27.52;47.31
23223;BME280;11780;13.904;100.620;2022-12-18T11:39:38;101283.47;;;27.52;47.02
23223;BME280;11780;13.904;100.620;2022-12-18T11:45:20;101289.19;;;27.55;47.33
23223;BME280;11780;13.904;100.620;2022-12-18T11:48:18;101300.50;;;27.48;47.16
23223;BME280;11780;13.904;100.620;2022-12-18T11:50:56;101300.75;;;27.52;47.25
23223;BME280;11780;13.904;100.620;2022-12-18T11:53:27;101309.53;;;27.54;47.28
23223;BME280;11780;13.904;100.620;2022-12-18T12:02:14;101335.88;;;27.60;47.77
23223;BME280;11780;13.904;100.620;2022-12-18T12:07:51;101347.91;;;27.64;47.69
23223;BME280;11780;13.904;100.620;2022-12-18T12:10:50;101356.53;;;27.53;47.72
23223;BME280;11780;13.904;100.620;2022-12-18T12:13:44;101363.16;;;27.52;47.46
23223;BME280;11780;13.904;100.620;2022-12-18T12:16:43;101363.53;;;27.29;47.18
23223;BME280;11780;13.904;100.620;2022-12-18T12:19:52;101370.59;;;27.41;47.07
23223;BME280;11780;13.904;100.620;2022-12-18T12:22:35;101376.16;;;27.30;46.99
23223;BME280;11780;13.904;100.620;2022-12-18T12:25:30;101379.47;;;27.32;47.00
23223;BME280;11780;13.904;100.620;2022-12-18T12:39:11;62634.31;;;-147.54;100.00
23223;BME280;11780;13.904;100.620;2022-12-18T12:41:45;62634.31;;;-147.54;100.00
23223;BME280;11780;13.904;100.620;2022-12-18T12:44:42;62634.31;;;-147.54;100.00
23223;BME280;11780;13.904;100.620;2022-12-18T12:47:26;62634.31;;;-147.54;100.00
23223;BME280;11780;13.904;100.620;2022-12-18T12:50:01;62634.31;;;-147.54;100.00
23223;BME280;11780;13.904;100.620;2022-12-18T12:52:55;62634.31;;;-147.54;100.00
23223;BME280;11780;13.904;100.620;2022-12-18T12:55:27;62634.31;;;-147.54;100.00
23223;BME280;11780;13.904;100.620;2022-12-18T13:00:59;62634.31;;;-147.54;100.00
23223;BME280;11780;13.904;100.620;2022-12-18T13:03:41;62634.31;;;-147.54;100.00
23223;BME280;11780;13.904;100.620;2022-12-18T13:09:00;62634.31;;;-147.54;100.00
23223;BME280;11780;13.904;100.620;2022-12-18T13:11:44;62634.31;;;-147.54;100.00
23223;BME280;11780;13.904;100.620;2022-12-18T13:14:37;62634.31;;;-147.54;100.00
23223;BME280;11780;13.904;100.620;2022-12-18T13:20:08;62634.31;;;-147.54;100.00
23223;BME280;11780;13.904;100.620;2022-12-18T13:22:45;62634.31;;;-147.54;100.00
23223;BME280;11780;13.904;100.620;2022-12-18T13:25:36;62634.31;;;-147.54;100.00
23223;BME280;11780;13.904;100.620;2022-12-18T13:28:15;62634.31;;;-147.54;100.00
23223;BME280;11780;13.904;100.620;2022-12-18T13:31:03;62634.31;;;-147.54;100.00
23223;BME280;11780;13.904;100.620;2022-12-18T13:33:45;62634.31;;;-147.54;100.00
23223;BME280;11780;13.904;100.620;2022-12-18T13:36:35;62634.31;;;-147.54;100.00
23223;BME280;11780;13.904;100.620;2022-12-18T13:44:41;62634.31;;;-147.54;100.00
23223;BME280;11780;13.904;100.620;2022-12-18T13:47:32;62634.31;;;-147.54;100.00
23223;BME280;11780;13.904;100.620;2022-12-18T13:50:31;62634.31;;;-147.54;100.00
23223;BME280;11780;13.904;100.620;2022-12-18T13:53:03;62634.31;;;-147.54;100.00
23223;BME280;11780;13.904;100.620;2022-12-18T13:55:34;62634.31;;;-147.54;100.00
23223;BME280;11780;13.904;100.620;2022-12-18T13:58:05;62634.31;;;-147.54;100.00
23223;BME280;11780;13.904;100.620;2022-12-18T14:00:35;62634.31;;;-147.54;100.00
23223;BME280;11780;13.904;100.620;2022-12-18T14:03:26;62634.31;;;-147.54;100.00
23223;BME280;11780;13.904;100.620;2022-12-18T14:06:03;62634.31;;;-147.54;100.00
23223;BME280;11780;13.904;100.620;2022-12-18T14:08:39;62634.31;;;-147.54;100.00
23223;BME280;11780;13.904;100.620;2022-12-18T14:11:23;62634.31;;;-147.54;100.00
23223;BME280;11780;13.904;100.620;2022-12-18T14:13:55;62634.31;;;-147.54;100.00
23223;BME280;11780;13.904;100.620;2022-12-18T14:16:27;62634.31;;;-147.54;100.00
23223;BME280;11780;13.904;100.620;2022-12-18T14:18:58;62634.31;;;-147.54;100.00
23223;BME280;11780;13.904;100.620;2022-12-18T14:21:48;62634.31;;;-147.54;100.00
23223;BME280;11780;13.904;100.620;2022-12-18T14:24:21;62634.31;;;-147.54;100.00
23223;BME280;11780;13.904;100.620;2022-12-18T14:26:51;62634.31;;;-147.54;100.00